Terminal Aerodrome Forecast
Issued by NWS Twin Cities, MN

Home | Current Version | Previous Version | Text Only | Print | Product List | Glossary Off
Versions: 1 2 3 4 5 6 7 8 9 10 11 12 13

000
FTUS43 KMPX 240520
TAFSTC
TAF
KSTC 240520Z 2406/2506 13006KT P6SM FEW070 BKN150
     FM241600 18013G21KT P6SM SCT060 BKN150 PROB30 2422/2503 -TSRA
      BKN050CB
     FM250300 18007KT P6SM SCT050=

USA.gov is the U.S. government's official web portal to all federal, state and local government web resources and services.